sensor_id;sensor_type;location;lat;lon;timestamp;pressure;altitude;pressure_sealevel;temperature
24586;BMP280;12743;52.262;6.172;2022-08-19T00:00:26;101014.59;;;19.46
24586;BMP280;12743;52.262;6.172;2022-08-19T00:02:53;101036.28;;;19.59
24586;BMP280;12743;52.262;6.172;2022-08-19T00:05:19;101010.78;;;19.44
24586;BMP280;12743;52.262;6.172;2022-08-19T00:07:44;101002.03;;;19.43
24586;BMP280;12743;52.262;6.172;2022-08-19T00:10:12;101019.94;;;19.57
24586;BMP280;12743;52.262;6.172;2022-08-19T00:12:39;101019.91;;;19.53
24586;BMP280;12743;52.262;6.172;2022-08-19T00:15:08;101038.59;;;19.64
24586;BMP280;12743;52.262;6.172;2022-08-19T00:17:42;101034.00;;;19.50
24586;BMP280;12743;52.262;6.172;2022-08-19T00:20:10;101035.91;;;19.53
24586;BMP280;12743;52.262;6.172;2022-08-19T00:22:36;100984.50;;;19.21
24586;BMP280;12743;52.262;6.172;2022-08-19T00:25:01;100988.31;;;19.20
24586;BMP280;12743;52.262;6.172;2022-08-19T00:27:27;101017.59;;;19.27
24586;BMP280;12743;52.262;6.172;2022-08-19T00:29:52;100981.81;;;19.07
24586;BMP280;12743;52.262;6.172;2022-08-19T00:32:18;101018.00;;;19.36
24586;BMP280;12743;52.262;6.172;2022-08-19T00:34:43;101026.00;;;19.43
24586;BMP280;12743;52.262;6.172;2022-08-19T00:37:09;100991.72;;;19.24
24586;BMP280;12743;52.262;6.172;2022-08-19T00:39:34;101002.75;;;19.23
24586;BMP280;12743;52.262;6.172;2022-08-19T00:42:00;101005.41;;;19.12
24586;BMP280;12743;52.262;6.172;2022-08-19T00:44:28;101011.50;;;19.09
24586;BMP280;12743;52.262;6.172;2022-08-19T00:46:57;100998.91;;;19.03
24586;BMP280;12743;52.262;6.172;2022-08-19T00:49:40;101007.28;;;19.15
24586;BMP280;12743;52.262;6.172;2022-08-19T00:52:12;101015.28;;;19.01
24586;BMP280;12743;52.262;6.172;2022-08-19T00:54:40;100982.88;;;18.89
24586;BMP280;12743;52.262;6.172;2022-08-19T00:57:09;101032.84;;;19.37
24586;BMP280;12743;52.262;6.172;2022-08-19T00:59:36;101018.75;;;19.26
24586;BMP280;12743;52.262;6.172;2022-08-19T01:02:04;101018.00;;;19.29
24586;BMP280;12743;52.262;6.172;2022-08-19T01:04:29;101025.97;;;19.29
24586;BMP280;12743;52.262;6.172;2022-08-19T01:06:56;101013.78;;;19.32
24586;BMP280;12743;52.262;6.172;2022-08-19T01:09:22;100987.50;;;18.99
24586;BMP280;12743;52.262;6.172;2022-08-19T01:11:48;100995.13;;;19.11
24586;BMP280;12743;52.262;6.172;2022-08-19T01:14:14;101013.03;;;19.17
24586;BMP280;12743;52.262;6.172;2022-08-19T01:16:42;101019.88;;;19.25
24586;BMP280;12743;52.262;6.172;2022-08-19T01:19:36;101017.56;;;19.06
24586;BMP280;12743;52.262;6.172;2022-08-19T01:22:26;101016.41;;;19.00
24586;BMP280;12743;52.262;6.172;2022-08-19T01:24:52;101010.63;;;18.77
24586;BMP280;12743;52.262;6.172;2022-08-19T01:27:17;100998.84;;;18.81
24586;BMP280;12743;52.262;6.172;2022-08-19T01:29:44;101024.81;;;19.09
24586;BMP280;12743;52.262;6.172;2022-08-19T01:32:15;101019.03;;;18.86
24586;BMP280;12743;52.262;6.172;2022-08-19T01:34:41;101002.22;;;18.75
24586;BMP280;12743;52.262;6.172;2022-08-19T01:37:10;101022.06;;;18.81
24586;BMP280;12743;52.262;6.172;2022-08-19T01:39:38;101017.03;;;18.69
24586;BMP280;12743;52.262;6.172;2022-08-19T01:42:05;101017.34;;;18.50
24586;BMP280;12743;52.262;6.172;2022-08-19T01:44:32;100990.69;;;18.43
24586;BMP280;12743;52.262;6.172;2022-08-19T01:46:57;101019.69;;;18.69
24586;BMP280;12743;52.262;6.172;2022-08-19T01:49:24;100979.00;;;18.54
24586;BMP280;12743;52.262;6.172;2022-08-19T01:51:51;101018.56;;;18.70
24586;BMP280;12743;52.262;6.172;2022-08-19T01:54:20;100973.56;;;18.37
24586;BMP280;12743;52.262;6.172;2022-08-19T01:56:46;101023.13;;;18.69
24586;BMP280;12743;52.262;6.172;2022-08-19T01:59:14;101018.50;;;18.56
24586;BMP280;12743;52.262;6.172;2022-08-19T02:01:41;101012.00;;;18.46
24586;BMP280;12743;52.262;6.172;2022-08-19T02:04:06;101033.69;;;18.48
24586;BMP280;12743;52.262;6.172;2022-08-19T02:06:32;100973.38;;;18.02
24586;BMP280;12743;52.262;6.172;2022-08-19T02:08:58;101012.34;;;18.41
24586;BMP280;12743;52.262;6.172;2022-08-19T02:11:34;101024.22;;;18.54
24586;BMP280;12743;52.262;6.172;2022-08-19T02:14:02;101009.75;;;18.45
24586;BMP280;12743;52.262;6.172;2022-08-19T02:16:28;101003.22;;;18.32
24586;BMP280;12743;52.262;6.172;2022-08-19T02:18:54;101027.94;;;18.46
24586;BMP280;12743;52.262;6.172;2022-08-19T02:21:21;100992.44;;;18.14
24586;BMP280;12743;52.262;6.172;2022-08-19T02:23:48;101029.81;;;18.32
24586;BMP280;12743;52.262;6.172;2022-08-19T02:26:14;101019.06;;;18.18
24586;BMP280;12743;52.262;6.172;2022-08-19T02:28:41;101030.22;;;18.41
24586;BMP280;12743;52.262;6.172;2022-08-19T02:31:10;100973.88;;;18.18
24586;BMP280;12743;52.262;6.172;2022-08-19T02:33:35;100990.44;;;18.01
24586;BMP280;12743;52.262;6.172;2022-08-19T02:36:04;100972.94;;;17.96
24586;BMP280;12743;52.262;6.172;2022-08-19T02:38:30;100981.28;;;17.95
24586;BMP280;12743;52.262;6.172;2022-08-19T02:41:00;101009.53;;;18.13
24586;BMP280;12743;52.262;6.172;2022-08-19T02:43:26;101036.56;;;18.26
24586;BMP280;12743;52.262;6.172;2022-08-19T02:45:52;101013.34;;;18.16
24586;BMP280;12743;52.262;6.172;2022-08-19T02:48:19;101029.00;;;18.28
24586;BMP280;12743;52.262;6.172;2022-08-19T02:50:46;101023.66;;;18.24
24586;BMP280;12743;52.262;6.172;2022-08-19T02:53:11;100988.63;;;18.08
24586;BMP280;12743;52.262;6.172;2022-08-19T02:55:43;101008.56;;;18.35
24586;BMP280;12743;52.262;6.172;2022-08-19T02:58:08;101007.34;;;18.33
24586;BMP280;12743;52.262;6.172;2022-08-19T03:00:34;101009.94;;;18.19
24586;BMP280;12743;52.262;6.172;2022-08-19T03:02:59;101005.97;;;17.95
24586;BMP280;12743;52.262;6.172;2022-08-19T03:05:25;101022.31;;;17.97
24586;BMP280;12743;52.262;6.172;2022-08-19T03:07:52;100997.84;;;17.74
24586;BMP280;12743;52.262;6.172;2022-08-19T03:10:17;100994.03;;;17.71
24586;BMP280;12743;52.262;6.172;2022-08-19T03:12:43;101017.38;;;17.92
24586;BMP280;12743;52.262;6.172;2022-08-19T03:15:10;101020.84;;;18.03
24586;BMP280;12743;52.262;6.172;2022-08-19T03:17:35;101011.63;;;17.90
24586;BMP280;12743;52.262;6.172;2022-08-19T03:20:02;101012.03;;;17.88
24586;BMP280;12743;52.262;6.172;2022-08-19T03:22:28;101026.09;;;17.96
24586;BMP280;12743;52.262;6.172;2022-08-19T03:24:55;101020.00;;;17.88
24586;BMP280;12743;52.262;6.172;2022-08-19T03:27:20;101006.63;;;17.78
24586;BMP280;12743;52.262;6.172;2022-08-19T03:29:46;101020.22;;;17.73
24586;BMP280;12743;52.262;6.172;2022-08-19T03:32:11;101031.41;;;17.89
24586;BMP280;12743;52.262;6.172;2022-08-19T03:34:38;101008.09;;;17.72
24586;BMP280;12743;52.262;6.172;2022-08-19T03:37:06;100998.53;;;17.67
24586;BMP280;12743;52.262;6.172;2022-08-19T03:39:32;101017.66;;;17.83
24586;BMP280;12743;52.262;6.172;2022-08-19T03:41:58;100973.75;;;17.49
24586;BMP280;12743;52.262;6.172;2022-08-19T03:44:28;101009.19;;;17.71
24586;BMP280;12743;52.262;6.172;2022-08-19T03:46:56;101005.41;;;17.68
24586;BMP280;12743;52.262;6.172;2022-08-19T03:49:25;101009.06;;;17.57
24586;BMP280;12743;52.262;6.172;2022-08-19T03:51:52;101024.75;;;17.65
24586;BMP280;12743;52.262;6.172;2022-08-19T03:54:19;101038.13;;;17.79
24586;BMP280;12743;52.262;6.172;2022-08-19T03:56:46;101005.25;;;17.51
24586;BMP280;12743;52.262;6.172;2022-08-19T03:59:16;101036.59;;;17.75
24586;BMP280;12743;52.262;6.172;2022-08-19T04:01:42;101027.88;;;17.78
24586;BMP280;12743;52.262;6.172;2022-08-19T04:04:08;101011.41;;;17.62
24586;BMP280;12743;52.262;6.172;2022-08-19T04:06:35;100967.03;;;17.22
24586;BMP280;12743;52.262;6.172;2022-08-19T04:09:04;101032.63;;;17.58
24586;BMP280;12743;52.262;6.172;2022-08-19T04:11:41;101034.91;;;17.60
24586;BMP280;12743;52.262;6.172;2022-08-19T04:14:09;101033.75;;;17.57
24586;BMP280;12743;52.262;6.172;2022-08-19T04:16:34;101009.38;;;17.48
24586;BMP280;12743;52.262;6.172;2022-08-19T04:19:02;100927.66;;;16.91
24586;BMP280;12743;52.262;6.172;2022-08-19T04:21:28;101014.84;;;17.62
24586;BMP280;12743;52.262;6.172;2022-08-19T04:23:54;100970.53;;;17.30
24586;BMP280;12743;52.262;6.172;2022-08-19T04:26:25;101010.63;;;17.58
24586;BMP280;12743;52.262;6.172;2022-08-19T04:28:51;100987.44;;;17.51
24586;BMP280;12743;52.262;6.172;2022-08-19T04:31:20;100961.16;;;17.43
24586;BMP280;12743;52.262;6.172;2022-08-19T04:33:46;100992.34;;;17.49
24586;BMP280;12743;52.262;6.172;2022-08-19T04:36:24;101014.50;;;17.71
24586;BMP280;12743;52.262;6.172;2022-08-19T04:38:57;100985.16;;;17.57
24586;BMP280;12743;52.262;6.172;2022-08-19T04:41:24;100990.66;;;17.34
24586;BMP280;12743;52.262;6.172;2022-08-19T04:44:08;100962.13;;;17.28
24586;BMP280;12743;52.262;6.172;2022-08-19T04:46:34;100992.69;;;17.48
24586;BMP280;12743;52.262;6.172;2022-08-19T04:49:02;101002.22;;;17.52
24586;BMP280;12743;52.262;6.172;2022-08-19T04:51:28;100992.75;;;17.51
24586;BMP280;12743;52.262;6.172;2022-08-19T04:53:55;100997.66;;;17.49
24586;BMP280;12743;52.262;6.172;2022-08-19T04:56:21;100928.13;;;17.00
24586;BMP280;12743;52.262;6.172;2022-08-19T04:58:48;100939.56;;;17.08
24586;BMP280;12743;52.262;6.172;2022-08-19T05:01:23;100952.59;;;17.23
24586;BMP280;12743;52.262;6.172;2022-08-19T05:03:49;101007.53;;;17.52
24586;BMP280;12743;52.262;6.172;2022-08-19T05:06:16;101012.03;;;17.48
24586;BMP280;12743;52.262;6.172;2022-08-19T05:08:43;100989.13;;;17.30
24586;BMP280;12743;52.262;6.172;2022-08-19T05:11:11;100973.84;;;17.20
24586;BMP280;12743;52.262;6.172;2022-08-19T05:13:37;100996.78;;;17.42
24586;BMP280;12743;52.262;6.172;2022-08-19T05:16:03;101009.78;;;17.50
24586;BMP280;12743;52.262;6.172;2022-08-19T05:18:29;101001.06;;;17.50
24586;BMP280;12743;52.262;6.172;2022-08-19T05:21:14;101017.50;;;17.62
24586;BMP280;12743;52.262;6.172;2022-08-19T05:23:59;101015.94;;;17.61
24586;BMP280;12743;52.262;6.172;2022-08-19T05:26:25;100969.00;;;17.29
24586;BMP280;12743;52.262;6.172;2022-08-19T05:28:54;100995.75;;;17.50
24586;BMP280;12743;52.262;6.172;2022-08-19T05:31:20;100989.72;;;17.56
24586;BMP280;12743;52.262;6.172;2022-08-19T05:33:46;101026.34;;;17.80
24586;BMP280;12743;52.262;6.172;2022-08-19T05:36:11;100980.25;;;17.55
24586;BMP280;12743;52.262;6.172;2022-08-19T05:38:37;100988.25;;;17.59
24586;BMP280;12743;52.262;6.172;2022-08-19T05:41:08;100992.44;;;17.63
24586;BMP280;12743;52.262;6.172;2022-08-19T05:43:34;100977.59;;;17.55
24586;BMP280;12743;52.262;6.172;2022-08-19T05:45:59;100968.41;;;17.46
24586;BMP280;12743;52.262;6.172;2022-08-19T05:48:24;101023.69;;;17.77
24586;BMP280;12743;52.262;6.172;2022-08-19T05:50:50;100975.72;;;17.63
24586;BMP280;12743;52.262;6.172;2022-08-19T05:53:16;101019.34;;;18.09
24586;BMP280;12743;52.262;6.172;2022-08-19T05:55:42;100986.56;;;17.87
24586;BMP280;12743;52.262;6.172;2022-08-19T05:58:07;101015.66;;;18.17
24586;BMP280;12743;52.262;6.172;2022-08-19T06:00:34;100992.19;;;17.75
24586;BMP280;12743;52.262;6.172;2022-08-19T06:03:00;100988.13;;;17.88
24586;BMP280;12743;52.262;6.172;2022-08-19T06:05:29;101018.66;;;18.19
24586;BMP280;12743;52.262;6.172;2022-08-19T06:07:55;100987.88;;;18.08
24586;BMP280;12743;52.262;6.172;2022-08-19T06:10:20;100990.25;;;18.27
24586;BMP280;12743;52.262;6.172;2022-08-19T06:12:47;100999.75;;;18.28
24586;BMP280;12743;52.262;6.172;2022-08-19T06:15:14;100990.63;;;18.25
24586;BMP280;12743;52.262;6.172;2022-08-19T06:17:40;100999.81;;;18.38
24586;BMP280;12743;52.262;6.172;2022-08-19T06:20:08;100965.97;;;18.32
24586;BMP280;12743;52.262;6.172;2022-08-19T06:22:45;101012.88;;;18.68
24586;BMP280;12743;52.262;6.172;2022-08-19T06:25:12;101002.53;;;18.56
24586;BMP280;12743;52.262;6.172;2022-08-19T06:27:39;100983.50;;;18.47
24586;BMP280;12743;52.262;6.172;2022-08-19T06:30:05;101009.03;;;18.62
24586;BMP280;12743;52.262;6.172;2022-08-19T06:32:31;100982.09;;;18.67
24586;BMP280;12743;52.262;6.172;2022-08-19T06:34:57;100988.22;;;18.89
24586;BMP280;12743;52.262;6.172;2022-08-19T06:37:22;101021.38;;;19.09
24586;BMP280;12743;52.262;6.172;2022-08-19T06:39:48;101011.50;;;19.16
24586;BMP280;12743;52.262;6.172;2022-08-19T06:42:14;101022.94;;;19.24
24586;BMP280;12743;52.262;6.172;2022-08-19T06:44:46;101013.44;;;19.26
24586;BMP280;12743;52.262;6.172;2022-08-19T06:47:14;100955.91;;;18.90
24586;BMP280;12743;52.262;6.172;2022-08-19T06:49:40;101018.38;;;19.31
24586;BMP280;12743;52.262;6.172;2022-08-19T06:52:06;101003.88;;;19.18
24586;BMP280;12743;52.262;6.172;2022-08-19T06:54:32;101025.25;;;19.64
24586;BMP280;12743;52.262;6.172;2022-08-19T06:56:59;101034.00;;;19.71
24586;BMP280;12743;52.262;6.172;2022-08-19T06:59:28;100984.50;;;19.49
24586;BMP280;12743;52.262;6.172;2022-08-19T07:01:56;101027.50;;;19.97
24586;BMP280;12743;52.262;6.172;2022-08-19T07:04:27;101018.75;;;19.90
24586;BMP280;12743;52.262;6.172;2022-08-19T07:07:02;101010.72;;;20.07
24586;BMP280;12743;52.262;6.172;2022-08-19T07:09:28;101021.75;;;20.20
24586;BMP280;12743;52.262;6.172;2022-08-19T07:11:55;101024.44;;;20.20
24586;BMP280;12743;52.262;6.172;2022-08-19T07:14:23;101004.97;;;20.23
24586;BMP280;12743;52.262;6.172;2022-08-19T07:16:51;100999.25;;;20.28
24586;BMP280;12743;52.262;6.172;2022-08-19T07:19:18;101049.88;;;20.49
24586;BMP280;12743;52.262;6.172;2022-08-19T07:21:43;101022.06;;;20.46
24586;BMP280;12743;52.262;6.172;2022-08-19T07:24:09;101018.28;;;20.33
24586;BMP280;12743;52.262;6.172;2022-08-19T07:26:40;101036.00;;;20.82
24586;BMP280;12743;52.262;6.172;2022-08-19T07:29:06;101038.56;;;20.96
24586;BMP280;12743;52.262;6.172;2022-08-19T07:31:32;101044.34;;;20.95
24586;BMP280;12743;52.262;6.172;2022-08-19T07:34:03;101054.44;;;21.24
24586;BMP280;12743;52.262;6.172;2022-08-19T07:36:32;101031.03;;;20.80
24586;BMP280;12743;52.262;6.172;2022-08-19T07:39:00;101032.13;;;20.90
24586;BMP280;12743;52.262;6.172;2022-08-19T07:41:28;101054.88;;;21.19
24586;BMP280;12743;52.262;6.172;2022-08-19T07:43:56;101045.69;;;21.24
24586;BMP280;12743;52.262;6.172;2022-08-19T07:46:21;101022.16;;;21.01
24586;BMP280;12743;52.262;6.172;2022-08-19T07:48:48;101055.03;;;21.49
24586;BMP280;12743;52.262;6.172;2022-08-19T07:51:18;101036.84;;;21.30
24586;BMP280;12743;52.262;6.172;2022-08-19T07:53:44;101038.41;;;21.28
24586;BMP280;12743;52.262;6.172;2022-08-19T07:56:14;101042.41;;;21.53
24586;BMP280;12743;52.262;6.172;2022-08-19T07:58:42;101049.22;;;21.61
24586;BMP280;12743;52.262;6.172;2022-08-19T08:01:11;101037.94;;;21.80
24586;BMP280;12743;52.262;6.172;2022-08-19T08:03:37;101055.00;;;21.97
24586;BMP280;12743;52.262;6.172;2022-08-19T08:06:22;101046.41;;;21.72
24586;BMP280;12743;52.262;6.172;2022-08-19T08:09:07;101034.44;;;21.91
24586;BMP280;12743;52.262;6.172;2022-08-19T08:12:23;101063.78;;;21.98
24586;BMP280;12743;52.262;6.172;2022-08-19T08:14:38;101049.16;;;22.06
24586;BMP280;12743;52.262;6.172;2022-08-19T08:17:05;101046.00;;;22.14
24586;BMP280;12743;52.262;6.172;2022-08-19T08:19:31;101052.38;;;21.90
24586;BMP280;12743;52.262;6.172;2022-08-19T08:21:58;101060.59;;;22.10
24586;BMP280;12743;52.262;6.172;2022-08-19T08:24:26;101079.69;;;22.45
24586;BMP280;12743;52.262;6.172;2022-08-19T08:26:51;101067.63;;;22.30
24586;BMP280;12743;52.262;6.172;2022-08-19T08:29:17;101023.66;;;21.98
24586;BMP280;12743;52.262;6.172;2022-08-19T08:31:44;101045.78;;;22.35
24586;BMP280;12743;52.262;6.172;2022-08-19T08:34:11;101062.81;;;22.48
24586;BMP280;12743;52.262;6.172;2022-08-19T08:36:38;101077.34;;;23.08
24586;BMP280;12743;52.262;6.172;2022-08-19T08:39:08;101084.09;;;22.62
24586;BMP280;12743;52.262;6.172;2022-08-19T08:42:13;101067.78;;;22.50
24586;BMP280;12743;52.262;6.172;2022-08-19T08:45:03;101066.09;;;22.63
24586;BMP280;12743;52.262;6.172;2022-08-19T08:47:36;101050.94;;;22.79
24586;BMP280;12743;52.262;6.172;2022-08-19T08:50:06;101055.03;;;22.87
24586;BMP280;12743;52.262;6.172;2022-08-19T08:52:36;101077.63;;;22.86
24586;BMP280;12743;52.262;6.172;2022-08-19T08:55:10;101086.69;;;23.23
24586;BMP280;12743;52.262;6.172;2022-08-19T08:57:39;101078.78;;;23.39
24586;BMP280;12743;52.262;6.172;2022-08-19T09:00:10;101063.53;;;23.09
24586;BMP280;12743;52.262;6.172;2022-08-19T09:02:38;101040.63;;;22.78
24586;BMP280;12743;52.262;6.172;2022-08-19T09:05:03;101068.88;;;23.09
24586;BMP280;12743;52.262;6.172;2022-08-19T09:15:28;101076.41;;;23.41
24586;BMP280;12743;52.262;6.172;2022-08-19T09:17:59;101062.25;;;23.17
24586;BMP280;12743;52.262;6.172;2022-08-19T09:20:24;101063.25;;;23.27
24586;BMP280;12743;52.262;6.172;2022-08-19T09:22:50;101036.25;;;23.37
24586;BMP280;12743;52.262;6.172;2022-08-19T09:25:19;101082.44;;;23.71
24586;BMP280;12743;52.262;6.172;2022-08-19T09:27:46;101073.66;;;23.90
24586;BMP280;12743;52.262;6.172;2022-08-19T09:30:19;101027.66;;;23.49
24586;BMP280;12743;52.262;6.172;2022-08-19T09:32:46;101070.75;;;23.62
24586;BMP280;12743;52.262;6.172;2022-08-19T09:35:12;101067.47;;;23.93
24586;BMP280;12743;52.262;6.172;2022-08-19T09:37:38;101085.56;;;23.89
24586;BMP280;12743;52.262;6.172;2022-08-19T09:40:04;101081.78;;;23.87
24586;BMP280;12743;52.262;6.172;2022-08-19T09:42:30;101085.50;;;24.52
24586;BMP280;12743;52.262;6.172;2022-08-19T09:44:55;101025.78;;;23.89
24586;BMP280;12743;52.262;6.172;2022-08-19T09:47:20;101086.19;;;24.36
24586;BMP280;12743;52.262;6.172;2022-08-19T09:49:46;101031.81;;;24.12
24586;BMP280;12743;52.262;6.172;2022-08-19T09:52:14;101029.06;;;24.16
24586;BMP280;12743;52.262;6.172;2022-08-19T09:54:41;101088.28;;;24.29
24586;BMP280;12743;52.262;6.172;2022-08-19T09:57:06;101064.66;;;24.56
24586;BMP280;12743;52.262;6.172;2022-08-19T09:59:32;101039.81;;;23.96
24586;BMP280;12743;52.262;6.172;2022-08-19T10:01:57;101059.78;;;24.15
24586;BMP280;12743;52.262;6.172;2022-08-19T10:04:23;101063.66;;;24.50
24586;BMP280;12743;52.262;6.172;2022-08-19T10:07:08;101069.03;;;24.50
24586;BMP280;12743;52.262;6.172;2022-08-19T10:09:33;101054.47;;;24.31
24586;BMP280;12743;52.262;6.172;2022-08-19T10:11:59;101037.81;;;24.20
24586;BMP280;12743;52.262;6.172;2022-08-19T10:14:26;101074.56;;;24.43
24586;BMP280;12743;52.262;6.172;2022-08-19T10:16:52;101046.56;;;24.60
24586;BMP280;12743;52.262;6.172;2022-08-19T10:19:17;101032.13;;;25.02
24586;BMP280;12743;52.262;6.172;2022-08-19T10:21:45;101055.09;;;25.51
24586;BMP280;12743;52.262;6.172;2022-08-19T10:24:10;101067.59;;;25.74
24586;BMP280;12743;52.262;6.172;2022-08-19T10:26:38;101068.84;;;25.69
24586;BMP280;12743;52.262;6.172;2022-08-19T10:29:04;101090.03;;;25.06
24586;BMP280;12743;52.262;6.172;2022-08-19T10:31:31;101075.16;;;25.18
24586;BMP280;12743;52.262;6.172;2022-08-19T10:33:58;101059.41;;;25.77
24586;BMP280;12743;52.262;6.172;2022-08-19T10:36:29;101093.88;;;25.05
24586;BMP280;12743;52.262;6.172;2022-08-19T10:38:58;101088.56;;;25.79
24586;BMP280;12743;52.262;6.172;2022-08-19T10:41:35;101065.34;;;25.56
24586;BMP280;12743;52.262;6.172;2022-08-19T10:44:03;101052.25;;;25.71
24586;BMP280;12743;52.262;6.172;2022-08-19T10:46:30;101032.44;;;25.36
24586;BMP280;12743;52.262;6.172;2022-08-19T10:48:58;101067.78;;;26.20
24586;BMP280;12743;52.262;6.172;2022-08-19T10:51:23;101023.66;;;26.30
24586;BMP280;12743;52.262;6.172;2022-08-19T10:54:08;101067.78;;;26.08
24586;BMP280;12743;52.262;6.172;2022-08-19T10:56:33;101073.31;;;26.54
24586;BMP280;12743;52.262;6.172;2022-08-19T10:59:20;101064.19;;;25.57
24586;BMP280;12743;52.262;6.172;2022-08-19T11:01:47;101081.97;;;26.08
24586;BMP280;12743;52.262;6.172;2022-08-19T11:04:13;101047.19;;;26.01
24586;BMP280;12743;52.262;6.172;2022-08-19T11:06:44;101070.81;;;26.60
24586;BMP280;12743;52.262;6.172;2022-08-19T11:09:10;101071.91;;;26.37
24586;BMP280;12743;52.262;6.172;2022-08-19T11:11:37;101029.56;;;26.13
24586;BMP280;12743;52.262;6.172;2022-08-19T11:14:11;101070.91;;;27.07
24586;BMP280;12743;52.262;6.172;2022-08-19T11:16:37;101021.00;;;27.24
24586;BMP280;12743;52.262;6.172;2022-08-19T11:19:05;101058.47;;;27.22
24586;BMP280;12743;52.262;6.172;2022-08-19T11:21:34;101052.91;;;26.91
24586;BMP280;12743;52.262;6.172;2022-08-19T11:24:12;101058.78;;;27.11
24586;BMP280;12743;52.262;6.172;2022-08-19T11:26:39;101076.50;;;27.00
24586;BMP280;12743;52.262;6.172;2022-08-19T11:29:07;101024.31;;;26.94
24586;BMP280;12743;52.262;6.172;2022-08-19T11:31:37;101065.13;;;27.17
24586;BMP280;12743;52.262;6.172;2022-08-19T11:34:06;101045.34;;;27.33
24586;BMP280;12743;52.262;6.172;2022-08-19T11:36:32;101042.78;;;26.95
24586;BMP280;12743;52.262;6.172;2022-08-19T11:38:58;101036.91;;;26.62
24586;BMP280;12743;52.262;6.172;2022-08-19T11:41:24;100958.38;;;26.73
24586;BMP280;12743;52.262;6.172;2022-08-19T11:43:51;101038.06;;;27.42
24586;BMP280;12743;52.262;6.172;2022-08-19T11:46:19;101031.69;;;28.01
24586;BMP280;12743;52.262;6.172;2022-08-19T11:48:44;100994.84;;;27.55
24586;BMP280;12743;52.262;6.172;2022-08-19T11:51:13;101063.56;;;27.84
24586;BMP280;12743;52.262;6.172;2022-08-19T11:53:39;100996.22;;;27.59
24586;BMP280;12743;52.262;6.172;2022-08-19T11:56:05;101028.84;;;27.74
24586;BMP280;12743;52.262;6.172;2022-08-19T11:58:32;101071.63;;;27.63
24586;BMP280;12743;52.262;6.172;2022-08-19T12:00:57;101022.72;;;27.82
24586;BMP280;12743;52.262;6.172;2022-08-19T12:03:23;101057.00;;;28.25
24586;BMP280;12743;52.262;6.172;2022-08-19T12:05:49;101023.81;;;27.63
24586;BMP280;12743;52.262;6.172;2022-08-19T12:08:15;101034.28;;;28.71
24586;BMP280;12743;52.262;6.172;2022-08-19T12:10:41;101007.56;;;27.33
24586;BMP280;12743;52.262;6.172;2022-08-19T12:13:08;101039.63;;;28.04
24586;BMP280;12743;52.262;6.172;2022-08-19T12:15:38;101047.34;;;27.84
24586;BMP280;12743;52.262;6.172;2022-08-19T12:18:06;101055.84;;;27.74
24586;BMP280;12743;52.262;6.172;2022-08-19T12:20:35;101053.44;;;28.37
24586;BMP280;12743;52.262;6.172;2022-08-19T12:23:00;101002.72;;;28.50
24586;BMP280;12743;52.262;6.172;2022-08-19T12:25:26;101050.66;;;28.59
24586;BMP280;12743;52.262;6.172;2022-08-19T12:27:51;101053.09;;;29.20
24586;BMP280;12743;52.262;6.172;2022-08-19T12:30:17;101041.53;;;28.83
24586;BMP280;12743;52.262;6.172;2022-08-19T12:32:42;101047.06;;;28.22
24586;BMP280;12743;52.262;6.172;2022-08-19T12:35:08;101054.78;;;28.42
24586;BMP280;12743;52.262;6.172;2022-08-19T12:37:36;101037.66;;;27.44
24586;BMP280;12743;52.262;6.172;2022-08-19T12:40:03;101053.59;;;28.33
24586;BMP280;12743;52.262;6.172;2022-08-19T12:42:28;101009.34;;;28.67
24586;BMP280;12743;52.262;6.172;2022-08-19T12:44:55;101059.59;;;29.22
24586;BMP280;12743;52.262;6.172;2022-08-19T12:47:21;101015.84;;;28.70
24586;BMP280;12743;52.262;6.172;2022-08-19T12:49:48;101017.78;;;28.69
24586;BMP280;12743;52.262;6.172;2022-08-19T12:52:13;101029.50;;;29.20
24586;BMP280;12743;52.262;6.172;2022-08-19T12:54:42;101064.16;;;28.59
24586;BMP280;12743;52.262;6.172;2022-08-19T12:57:09;101032.13;;;28.39
24586;BMP280;12743;52.262;6.172;2022-08-19T12:59:35;101053.69;;;28.70
24586;BMP280;12743;52.262;6.172;2022-08-19T13:02:06;101041.41;;;28.29
24586;BMP280;12743;52.262;6.172;2022-08-19T13:04:33;101042.75;;;28.91
24586;BMP280;12743;52.262;6.172;2022-08-19T13:07:00;101044.84;;;29.23
24586;BMP280;12743;52.262;6.172;2022-08-19T13:09:26;101020.66;;;28.93
24586;BMP280;12743;52.262;6.172;2022-08-19T13:11:51;101012.66;;;29.07
24586;BMP280;12743;52.262;6.172;2022-08-19T13:14:16;101022.28;;;29.86
24586;BMP280;12743;52.262;6.172;2022-08-19T13:16:42;101009.34;;;29.39
24586;BMP280;12743;52.262;6.172;2022-08-19T13:19:07;101020.81;;;29.16
24586;BMP280;12743;52.262;6.172;2022-08-19T13:21:33;101021.09;;;28.82
24586;BMP280;12743;52.262;6.172;2022-08-19T13:23:58;100998.75;;;28.24
24586;BMP280;12743;52.262;6.172;2022-08-19T13:26:24;101027.09;;;28.10
24586;BMP280;12743;52.262;6.172;2022-08-19T13:28:49;100949.38;;;28.23
24586;BMP280;12743;52.262;6.172;2022-08-19T13:31:35;101010.47;;;29.56
24586;BMP280;12743;52.262;6.172;2022-08-19T13:34:28;101009.91;;;29.52
24586;BMP280;12743;52.262;6.172;2022-08-19T13:36:53;100981.19;;;29.55
24586;BMP280;12743;52.262;6.172;2022-08-19T13:39:19;101017.03;;;30.15
24586;BMP280;12743;52.262;6.172;2022-08-19T13:41:45;101025.91;;;30.63
24586;BMP280;12743;52.262;6.172;2022-08-19T13:44:16;101005.03;;;30.07
24586;BMP280;12743;52.262;6.172;2022-08-19T13:46:43;101007.72;;;30.92
24586;BMP280;12743;52.262;6.172;2022-08-19T13:49:10;101019.38;;;30.31
24586;BMP280;12743;52.262;6.172;2022-08-19T13:51:37;100987.94;;;31.64
24586;BMP280;12743;52.262;6.172;2022-08-19T13:54:04;100995.38;;;31.49
24586;BMP280;12743;52.262;6.172;2022-08-19T13:56:30;100973.94;;;30.41
24586;BMP280;12743;52.262;6.172;2022-08-19T13:58:55;101012.06;;;30.14
24586;BMP280;12743;52.262;6.172;2022-08-19T14:01:22;100995.31;;;29.41
24586;BMP280;12743;52.262;6.172;2022-08-19T14:03:47;100966.66;;;29.67
24586;BMP280;12743;52.262;6.172;2022-08-19T14:06:13;100950.84;;;30.31
24586;BMP280;12743;52.262;6.172;2022-08-19T14:08:38;100983.47;;;30.36